Time;durP1;ratioP1;P1;durP2;ratioP2;P2;SDS_P1;SDS_P2;PMS_P1;PMS_P2;Temp;Humidity;BMP_temperature;BMP_pressure;BME280_temperature;BME280_humidity;BME280_pressure;Samples;Min_cycle;Max_cycle;Signal;HPM_P1;HPM_P2
2021/08/05 00:02:11;;;;;;;3.20;2.90;;;;;22.10;101062.00;;;;5037368;28;20709;-77
2021/08/05 00:04:39;;;;;;;2.80;2.55;;;;;22.10;101063.00;;;;5042231;28;20230;-77
2021/08/05 00:07:07;;;;;;;3.35;2.75;;;;;22.10;101056.00;;;;5044482;28;20211;-77
2021/08/05 00:09:35;;;;;;;2.97;2.67;;;;;22.00;101055.00;;;;5046339;28;20210;-77
2021/08/05 00:12:03;;;;;;;5.63;2.90;;;;;22.00;101062.00;;;;5041970;28;20188;-77
2021/08/05 00:14:31;;;;;;;2.75;2.55;;;;;22.00;101053.00;;;;5036114;28;20203;-77
2021/08/05 00:16:58;;;;;;;4.70;2.72;;;;;21.90;101051.00;;;;5029799;28;20931;-77
2021/08/05 00:19:26;;;;;;;3.00;2.35;;;;;21.90;101048.00;;;;5036578;28;20207;-77
2021/08/05 00:21:53;;;;;;;2.33;2.13;;;;;21.90;101046.00;;;;5028835;28;20225;-77
2021/08/05 00:24:20;;;;;;;3.22;2.92;;;;;21.90;101046.00;;;;5035294;28;20224;-77
2021/08/05 00:26:48;;;;;;;2.63;2.42;;;;;21.80;101042.00;;;;5040270;28;20192;-77
2021/08/05 00:29:16;;;;;;;2.85;2.35;;;;;21.80;101044.00;;;;5040122;28;20693;-77
2021/08/05 00:31:43;;;;;;;2.67;2.35;;;;;21.80;101038.00;;;;5045168;28;20200;-77
2021/08/05 00:34:11;;;;;;;3.03;2.75;;;;;21.80;101036.00;;;;5036220;28;20243;-77
2021/08/05 00:36:38;;;;;;;4.43;2.65;;;;;21.70;101033.00;;;;5030765;28;20199;-77
2021/08/05 00:39:06;;;;;;;2.97;2.58;;;;;21.70;101022.00;;;;5046395;28;20195;-77
2021/08/05 00:41:33;;;;;;;2.45;2.25;;;;;21.70;101029.00;;;;5048664;28;20192;-77
2021/08/05 00:44:02;;;;;;;2.92;2.67;;;;;21.70;101030.00;;;;5039392;28;20274;-77
2021/08/05 00:46:31;;;;;;;2.28;2.08;;;;;21.60;101025.00;;;;5035372;28;20283;-77
2021/08/05 00:48:58;;;;;;;3.20;2.83;;;;;21.60;101025.00;;;;5043562;28;20207;-77
2021/08/05 00:51:26;;;;;;;2.85;2.55;;;;;21.60;101023.00;;;;5034139;28;20203;-77
2021/08/05 00:53:53;;;;;;;3.15;2.55;;;;;21.60;101021.00;;;;5027347;28;20196;-77
2021/08/05 00:56:20;;;;;;;2.75;2.55;;;;;21.60;101017.00;;;;5026865;28;20247;-77
2021/08/05 00:58:47;;;;;;;3.17;2.40;;;;;21.50;101025.00;;;;5038470;28;20203;-77
2021/08/05 01:01:18;;;;;;;3.45;2.40;;;;;21.50;101017.00;;;;5034277;28;20191;-77
2021/08/05 01:03:51;;;;;;;2.47;2.28;;;;;21.50;101013.00;;;;5043622;28;20265;-77
2021/08/05 01:06:32;;;;;;;2.33;2.13;;;;;21.40;101010.00;;;;5042634;28;20658;-77
2021/08/05 01:09:04;;;;;;;2.30;2.10;;;;;21.40;101011.00;;;;5031814;28;20670;-77
2021/08/05 01:11:38;;;;;;;2.38;2.17;;;;;21.40;101002.00;;;;5033244;28;20188;-77
2021/08/05 01:14:09;;;;;;;2.17;1.98;;;;;21.40;101010.00;;;;5046038;28;20199;-77
2021/08/05 01:16:43;;;;;;;2.67;2.47;;;;;21.30;101001.00;;;;5046171;28;20192;-77
2021/08/05 01:19:27;;;;;;;3.50;2.60;;;;;21.30;100997.00;;;;5043793;28;20211;-77
2021/08/05 01:22:01;;;;;;;2.60;2.40;;;;;21.30;101000.00;;;;5050057;28;20896;-77
2021/08/05 01:24:37;;;;;;;2.85;2.65;;;;;21.30;100997.00;;;;5043003;28;20229;-77
2021/08/05 01:27:06;;;;;;;3.05;2.72;;;;;21.20;100997.00;;;;5041428;28;20203;-77
2021/08/05 01:29:36;;;;;;;3.35;2.90;;;;;21.20;100995.00;;;;5030730;28;20220;-77
2021/08/05 01:32:06;;;;;;;2.75;2.55;;;;;21.20;101003.00;;;;5033737;28;20201;-77
2021/08/05 01:34:35;;;;;;;3.92;3.25;;;;;21.20;100999.00;;;;5030110;28;20226;-77
2021/08/05 01:37:04;;;;;;;3.13;2.83;;;;;21.10;100992.00;;;;5038202;28;20204;-77
2021/08/05 01:39:31;;;;;;;4.15;2.80;;;;;21.10;100983.00;;;;5049958;28;20658;-77
2021/08/05 01:41:58;;;;;;;2.90;2.60;;;;;21.10;100986.00;;;;5048900;28;20199;-77
2021/08/05 01:44:29;;;;;;;3.35;3.05;;;;;21.00;100978.00;;;;5050640;28;20223;-77
2021/08/05 01:46:57;;;;;;;3.30;3.03;;;;;21.00;100978.00;;;;5050508;28;20215;-77
2021/08/05 01:49:25;;;;;;;3.53;3.22;;;;;21.00;100981.00;;;;5047715;28;20191;-77
2021/08/05 01:51:54;;;;;;;8.23;3.00;;;;;21.00;100975.00;;;;5050969;28;20200;-77
2021/08/05 01:54:21;;;;;;;3.97;3.55;;;;;21.00;100978.00;;;;5048525;28;20273;-77
2021/08/05 01:56:48;;;;;;;3.30;2.83;;;;;20.90;100975.00;;;;5039303;28;20900;-77
2021/08/05 01:59:15;;;;;;;2.80;2.60;;;;;20.90;100966.00;;;;5037745;28;20607;-77
2021/08/05 02:01:44;;;;;;;2.92;2.50;;;;;20.90;100971.00;;;;5039484;28;20199;-77
2021/08/05 02:04:25;;;;;;;2.88;2.58;;;;;20.80;100971.00;;;;5034121;28;20215;-77
2021/08/05 02:06:56;;;;;;;2.45;2.25;;;;;20.90;100967.00;;;;5038718;28;20188;-77
2021/08/05 02:09:29;;;;;;;4.05;2.30;;;;;20.80;100976.00;;;;5044906;28;20191;-77
2021/08/05 02:11:58;;;;;;;2.95;2.13;;;;;20.80;100966.00;;;;5041042;28;20208;-77
2021/08/05 02:14:28;;;;;;;2.67;2.08;;;;;20.80;100958.00;;;;5048789;28;20192;-77
2021/08/05 02:16:59;;;;;;;2.30;1.98;;;;;20.80;100968.00;;;;5043471;28;20192;-78
2021/08/05 02:19:27;;;;;;;2.63;2.33;;;;;20.80;100961.00;;;;5031322;28;20193;-77
2021/08/05 02:21:54;;;;;;;3.72;2.30;;;;;20.70;100962.00;;;;5032688;28;20192;-77
2021/08/05 02:24:22;;;;;;;2.95;2.38;;;;;20.70;100965.00;;;;5044966;28;20223;-78
2021/08/05 02:26:51;;;;;;;2.65;2.33;;;;;20.70;100960.00;;;;5041919;28;20192;-78
2021/08/05 02:29:19;;;;;;;2.75;2.45;;;;;20.70;100967.00;;;;5035225;28;20311;-78
2021/08/05 02:31:47;;;;;;;2.38;2.10;;;;;20.70;100969.00;;;;5036533;28;20219;-77
2021/08/05 02:34:16;;;;;;;2.47;2.28;;;;;20.60;100967.00;;;;5032050;28;20216;-77
2021/08/05 02:36:44;;;;;;;3.13;2.45;;;;;20.60;100962.00;;;;5036867;28;20793;-77
2021/08/05 02:39:11;;;;;;;4.82;2.63;;;;;20.60;100961.00;;;;5048160;28;20214;-77
2021/08/05 02:41:39;;;;;;;2.90;2.58;;;;;20.60;100964.00;;;;5046147;28;20196;-77
2021/08/05 02:44:07;;;;;;;2.97;2.67;;;;;20.60;100955.00;;;;5048740;28;20230;-77
2021/08/05 02:46:35;;;;;;;2.97;2.55;;;;;20.60;100965.00;;;;5041879;28;20216;-78
2021/08/05 02:49:03;;;;;;;4.03;2.85;;;;;20.60;100956.00;;;;5032097;28;20249;-78
2021/08/05 02:51:32;;;;;;;6.38;2.38;;;;;20.60;100956.00;;;;5050553;28;20196;-78
2021/08/05 02:53:59;;;;;;;3.08;2.78;;;;;20.60;100952.00;;;;5046969;28;20191;-77
2021/08/05 02:56:27;;;;;;;2.58;2.38;;;;;20.60;100952.00;;;;5033901;28;20206;-77
2021/08/05 02:58:55;;;;;;;2.90;2.63;;;;;20.60;100953.00;;;;5045445;28;20689;-77
2021/08/05 03:01:22;;;;;;;3.30;2.83;;;;;20.60;100948.00;;;;5033422;28;20271;-77
2021/08/05 03:03:52;;;;;;;3.28;2.83;;;;;20.50;100940.00;;;;5030765;28;20188;-77
2021/08/05 03:06:25;;;;;;;3.15;2.63;;;;;20.50;100944.00;;;;5039766;28;20283;-77
2021/08/05 03:08:54;;;;;;;2.60;2.40;;;;;20.60;100940.00;;;;5031941;28;20279;-77
2021/08/05 03:11:21;;;;;;;3.22;2.92;;;;;20.60;100949.00;;;;5030682;28;20205;-77
2021/08/05 03:13:48;;;;;;;2.83;2.58;;;;;20.60;100943.00;;;;5042190;28;20196;-77
2021/08/05 03:16:16;;;;;;;4.75;2.85;;;;;20.60;100935.00;;;;5049722;28;20208;-77
2021/08/05 03:18:45;;;;;;;2.72;2.53;;;;;20.60;100932.00;;;;5038027;28;20201;-77
2021/08/05 03:21:12;;;;;;;3.35;2.58;;;;;20.60;100936.00;;;;5038513;28;20200;-77
2021/08/05 03:23:39;;;;;;;2.70;2.50;;;;;20.60;100935.00;;;;5044002;28;20199;-77
2021/08/05 03:26:08;;;;;;;3.15;2.88;;;;;20.60;100940.00;;;;5030966;28;20200;-77
2021/08/05 03:28:36;;;;;;;3.30;2.88;;;;;20.60;100936.00;;;;5048271;28;20222;-78
2021/08/05 03:31:04;;;;;;;3.25;2.95;;;;;20.70;100932.00;;;;5049490;28;20318;-77
2021/08/05 03:33:31;;;;;;;2.67;2.47;;;;;20.70;100926.00;;;;5049336;28;20196;-77
2021/08/05 03:35:58;;;;;;;3.03;2.80;;;;;20.70;100936.00;;;;5038776;28;21322;-77
2021/08/05 03:38:26;;;;;;;3.08;2.78;;;;;20.70;100937.00;;;;5049581;28;20204;-77
2021/08/05 03:40:53;;;;;;;3.85;3.53;;;;;20.70;100934.00;;;;5042010;28;20196;-77
2021/08/05 03:43:21;;;;;;;3.95;2.58;;;;;20.70;100935.00;;;;5049589;28;20200;-77
2021/08/05 03:45:49;;;;;;;3.15;2.85;;;;;20.70;100937.00;;;;5046252;28;20230;-77
2021/08/05 03:48:16;;;;;;;5.70;2.85;;;;;20.70;100937.00;;;;5050071;28;20203;-77
2021/08/05 03:50:43;;;;;;;3.30;2.97;;;;;20.70;100925.00;;;;5047585;28;20211;-77
2021/08/05 03:53:10;;;;;;;2.78;2.58;;;;;20.70;100923.00;;;;5040190;28;20658;-77
2021/08/05 03:55:38;;;;;;;3.33;2.80;;;;;20.80;100923.00;;;;5029816;28;20200;-77
2021/08/05 03:58:06;;;;;;;5.38;3.55;;;;;20.80;100931.00;;;;5029555;28;20203;-78
2021/08/05 04:00:35;;;;;;;6.20;3.42;;;;;20.70;100925.00;;;;5029575;28;20714;-77
2021/08/05 04:03:02;;;;;;;5.18;3.17;;;;;20.80;100921.00;;;;5042686;28;20192;-77
2021/08/05 04:05:30;;;;;;;3.53;3.22;;;;;20.80;100922.00;;;;5042354;28;20752;-77
2021/08/05 04:07:57;;;;;;;3.47;3.17;;;;;20.80;100928.00;;;;5038389;28;20231;-77
2021/08/05 04:10:25;;;;;;;3.40;3.10;;;;;20.80;100926.00;;;;5047961;28;20196;-77
2021/08/05 04:12:52;;;;;;;3.45;3.10;;;;;20.80;100919.00;;;;5039280;28;20271;-77
2021/08/05 04:15:21;;;;;;;3.50;3.20;;;;;20.80;100922.00;;;;5036907;28;20191;-78
2021/08/05 04:17:49;;;;;;;3.05;2.75;;;;;20.80;100911.00;;;;5048403;28;20223;-78
2021/08/05 04:20:18;;;;;;;4.40;3.58;;;;;20.80;100910.00;;;;5042836;28;20191;-78
2021/08/05 04:22:45;;;;;;;4.03;3.67;;;;;20.80;100918.00;;;;5048750;28;20206;-78
2021/08/05 04:25:13;;;;;;;3.22;2.92;;;;;20.80;100916.00;;;;5035070;28;20235;-78
2021/08/05 04:27:41;;;;;;;3.92;3.53;;;;;20.80;100913.00;;;;5042697;28;20212;-77
2021/08/05 04:30:10;;;;;;;3.80;3.40;;;;;20.90;100911.00;;;;5048055;28;20219;-77
2021/08/05 04:32:38;;;;;;;3.25;2.70;;;;;20.90;100913.00;;;;5046660;28;20202;-77
2021/08/05 04:35:08;;;;;;;3.42;3.13;;;;;20.90;100916.00;;;;5035327;28;20234;-78
2021/08/05 04:37:36;;;;;;;3.50;3.20;;;;;20.90;100908.00;;;;5034659;28;20704;-78
2021/08/05 04:40:04;;;;;;;3.65;3.05;;;;;20.90;100911.00;;;;5035502;28;20200;-78
2021/08/05 04:42:31;;;;;;;5.47;3.80;;;;;20.90;100912.00;;;;5039000;28;20199;-78
2021/08/05 04:44:58;;;;;;;3.65;3.35;;;;;21.00;100916.00;;;;5039424;28;20219;-78
2021/08/05 04:47:25;;;;;;;3.60;3.30;;;;;21.00;100913.00;;;;5031026;28;20216;-79
2021/08/05 04:49:53;;;;;;;3.78;3.47;;;;;21.00;100913.00;;;;5033478;28;20207;-78
2021/08/05 04:52:21;;;;;;;3.40;2.92;;;;;21.00;100909.00;;;;5036054;28;20203;-79
2021/08/05 04:54:48;;;;;;;3.53;3.22;;;;;21.00;100909.00;;;;5040273;28;20211;-78
2021/08/05 04:57:16;;;;;;;3.78;3.40;;;;;21.00;100905.00;;;;5030418;28;20200;-78
2021/08/05 04:59:43;;;;;;;3.83;3.22;;;;;21.10;100907.00;;;;5029086;28;20195;-78
2021/08/05 05:02:10;;;;;;;4.15;3.25;;;;;21.10;100903.00;;;;5036824;28;20212;-78
2021/08/05 05:04:37;;;;;;;3.30;3.00;;;;;21.10;100906.00;;;;5032704;28;20224;-79
2021/08/05 05:07:05;;;;;;;3.72;3.33;;;;;21.10;100909.00;;;;5033544;28;20203;-79
2021/08/05 05:09:33;;;;;;;3.72;3.42;;;;;21.10;100901.00;;;;5041900;28;20203;-78
2021/08/05 05:12:00;;;;;;;4.10;2.97;;;;;21.10;100903.00;;;;5042599;28;20282;-78
2021/08/05 05:14:28;;;;;;;4.50;3.72;;;;;21.10;100894.00;;;;5037082;28;20197;-79
2021/08/05 05:16:55;;;;;;;3.65;3.35;;;;;21.20;100901.00;;;;5039709;28;20306;-78
2021/08/05 05:19:23;;;;;;;3.50;3.20;;;;;21.20;100895.00;;;;5035300;28;20196;-77
2021/08/05 05:21:50;;;;;;;7.40;4.50;;;;;21.20;100895.00;;;;5046929;28;20195;-77
2021/08/05 05:24:17;;;;;;;3.55;3.25;;;;;21.30;100891.00;;;;5043392;28;20215;-77
2021/08/05 05:26:46;;;;;;;4.35;3.40;;;;;21.30;100898.00;;;;5039813;28;20195;-77
2021/08/05 05:29:13;;;;;;;3.85;3.55;;;;;21.30;100900.00;;;;5043634;28;20211;-77
2021/08/05 05:31:40;;;;;;;4.40;4.00;;;;;21.40;100900.00;;;;5030808;28;20201;-77
2021/08/05 05:34:08;;;;;;;3.97;3.50;;;;;21.40;100895.00;;;;5042730;28;20231;-77
2021/08/05 05:36:35;;;;;;;3.90;3.60;;;;;21.40;100901.00;;;;5041097;28;20199;-77
2021/08/05 05:39:02;;;;;;;5.07;3.08;;;;;21.50;100896.00;;;;5044199;28;20708;-77
2021/08/05 05:41:29;;;;;;;3.80;3.45;;;;;21.50;100896.00;;;;5039813;28;20208;-77
2021/08/05 05:43:58;;;;;;;4.03;3.58;;;;;21.50;100899.00;;;;5035666;28;20199;-77
2021/08/05 05:46:26;;;;;;;6.18;3.45;;;;;21.60;100895.00;;;;5040970;28;20224;-77
2021/08/05 05:48:53;;;;;;;4.28;3.88;;;;;21.60;100892.00;;;;5038826;28;20265;-77
2021/08/05 05:51:21;;;;;;;3.17;2.95;;;;;21.70;100887.00;;;;5036571;28;20196;-77
2021/08/05 05:53:48;;;;;;;3.90;3.60;;;;;21.70;100890.00;;;;5041696;28;20216;-77
2021/08/05 05:56:15;;;;;;;4.30;3.90;;;;;21.70;100884.00;;;;5030045;28;20725;-77
2021/08/05 05:58:43;;;;;;;3.85;3.55;;;;;21.80;100893.00;;;;5038379;28;20203;-77
2021/08/05 06:01:11;;;;;;;3.97;3.67;;;;;21.80;100887.00;;;;5034634;28;20212;-77
2021/08/05 06:03:38;;;;;;;4.35;3.95;;;;;21.80;100889.00;;;;5047253;28;20191;-77
2021/08/05 06:06:06;;;;;;;5.28;3.80;;;;;21.90;100888.00;;;;5046295;28;20705;-77
2021/08/05 06:08:33;;;;;;;3.92;3.58;;;;;21.90;100890.00;;;;5031405;28;20199;-77
2021/08/05 06:11:00;;;;;;;4.32;3.92;;;;;22.00;100894.00;;;;5029099;28;20216;-77
2021/08/05 06:13:27;;;;;;;3.80;3.45;;;;;22.00;100896.00;;;;5029983;28;20200;-77
2021/08/05 06:15:54;;;;;;;4.72;4.28;;;;;22.00;100895.00;;;;5029949;28;20200;-78
2021/08/05 06:18:23;;;;;;;4.50;4.10;;;;;22.10;100891.00;;;;5032073;28;20208;-77
2021/08/05 06:20:50;;;;;;;4.70;4.25;;;;;22.10;100891.00;;;;5029761;28;20240;-77
2021/08/05 06:23:18;;;;;;;4.53;4.00;;;;;22.20;100891.00;;;;5030380;28;20204;-77
2021/08/05 06:25:45;;;;;;;4.53;4.13;;;;;22.20;100898.00;;;;5032185;28;20690;-77
2021/08/05 06:28:12;;;;;;;4.95;4.22;;;;;22.20;100887.00;;;;5037025;28;20195;-77
2021/08/05 06:30:40;;;;;;;4.30;3.95;;;;;22.30;100896.00;;;;5041260;28;20220;-77
2021/08/05 06:33:07;;;;;;;5.75;5.03;;;;;22.30;100897.00;;;;5032005;28;20223;-77
2021/08/05 06:35:35;;;;;;;4.38;3.97;;;;;22.40;100900.00;;;;5040117;28;20264;-78
2021/08/05 06:38:03;;;;;;;4.80;4.38;;;;;22.50;100899.00;;;;5047156;28;20206;-77
2021/08/05 06:40:30;;;;;;;5.85;4.53;;;;;22.50;100896.00;;;;5046022;28;20556;-79
2021/08/05 06:42:57;;;;;;;4.63;4.22;;;;;22.60;100892.00;;;;5048381;28;20707;-78
2021/08/05 06:45:24;;;;;;;6.00;5.47;;;;;22.60;100888.00;;;;5049290;28;20223;-79
2021/08/05 06:47:51;;;;;;;6.13;5.53;;;;;22.70;100889.00;;;;5045041;28;20233;-79
2021/08/05 06:50:20;;;;;;;6.20;5.63;;;;;22.70;100891.00;;;;5047262;28;20192;-78
2021/08/05 06:52:50;;;;;;;6.18;5.57;;;;;22.80;100893.00;;;;5028822;28;20193;-79
2021/08/05 06:55:18;;;;;;;6.60;5.97;;;;;22.90;100898.00;;;;5031756;28;20207;-79
2021/08/05 06:57:45;;;;;;;6.97;6.28;;;;;23.00;100897.00;;;;5028468;28;20200;-78
2021/08/05 07:00:13;;;;;;;7.32;6.63;;;;;23.10;100898.00;;;;5038601;28;20218;-78
2021/08/05 07:02:41;;;;;;;6.97;6.28;;;;;23.20;100892.00;;;;5048998;28;20192;-78
2021/08/05 07:05:10;;;;;;;7.15;6.40;;;;;23.30;100897.00;;;;5049148;28;20206;-78
2021/08/05 07:07:37;;;;;;;8.18;7.43;;;;;23.40;100900.00;;;;5030753;28;20196;-78
2021/08/05 07:10:07;;;;;;;8.77;7.70;;;;;23.50;100901.00;;;;5029633;28;20200;-78
2021/08/05 07:12:34;;;;;;;8.40;7.60;;;;;23.60;100896.00;;;;5030231;28;20199;-78
2021/08/05 07:15:02;;;;;;;8.18;7.40;;;;;23.70;100900.00;;;;5029801;28;20204;-79
2021/08/05 07:17:29;;;;;;;8.38;7.35;;;;;23.80;100910.00;;;;5040556;28;20212;-78
2021/08/05 07:19:56;;;;;;;7.13;6.43;;;;;23.90;100898.00;;;;5048161;28;21253;-78
2021/08/05 07:22:23;;;;;;;7.95;7.15;;;;;24.00;100897.00;;;;5050313;28;20199;-78
2021/08/05 07:24:50;;;;;;;6.75;6.10;;;;;24.00;100897.00;;;;5045488;28;20195;-78
2021/08/05 07:27:19;;;;;;;6.97;6.38;;;;;24.10;100886.00;;;;5038963;28;20228;-76
2021/08/05 07:29:46;;;;;;;7.00;6.40;;;;;24.20;100888.00;;;;5027635;28;20263;-76
2021/08/05 07:32:13;;;;;;;8.15;7.45;;;;;24.20;100877.00;;;;5027698;28;20219;-76
2021/08/05 07:34:41;;;;;;;8.48;7.63;;;;;24.30;100874.00;;;;5040187;28;20231;-75
2021/08/05 07:37:08;;;;;;;7.60;6.90;;;;;24.40;100874.00;;;;5047413;28;20208;-76
2021/08/05 07:39:35;;;;;;;7.80;7.00;;;;;24.40;100875.00;;;;5028098;28;20678;-77
2021/08/05 07:42:03;;;;;;;7.75;6.97;;;;;24.50;100878.00;;;;5028027;28;20212;-76
2021/08/05 07:44:31;;;;;;;7.53;6.82;;;;;24.60;100871.00;;;;5028380;28;20200;-77
2021/08/05 07:46:58;;;;;;;7.50;6.63;;;;;24.60;100871.00;;;;5029571;28;20234;-76
2021/08/05 07:49:26;;;;;;;9.50;7.72;;;;;24.70;100866.00;;;;5029538;28;20203;-76
2021/08/05 07:51:54;;;;;;;9.32;7.78;;;;;24.80;100863.00;;;;5044387;28;20205;-76
2021/08/05 07:54:21;;;;;;;7.85;7.03;;;;;24.90;100864.00;;;;5049564;28;20404;-76
2021/08/05 07:56:48;;;;;;;9.52;7.40;;;;;25.00;100861.00;;;;5046130;28;20282;-77
2021/08/05 07:59:16;;;;;;;8.27;7.50;;;;;25.00;100858.00;;;;5044707;28;20200;-77
2021/08/05 08:01:44;;;;;;;9.23;7.82;;;;;25.10;100862.00;;;;5046134;28;20191;-78
2021/08/05 08:04:12;;;;;;;8.23;7.43;;;;;25.10;100855.00;;;;5027881;28;20201;-77
2021/08/05 08:06:39;;;;;;;8.45;7.63;;;;;25.20;100851.00;;;;5027413;28;20250;-76
2021/08/05 08:09:06;;;;;;;8.63;7.70;;;;;25.30;100861.00;;;;5043327;28;20200;-77
2021/08/05 08:11:33;;;;;;;8.50;7.65;;;;;25.30;100859.00;;;;5047250;28;20614;-77
2021/08/05 08:14:01;;;;;;;9.27;8.40;;;;;25.40;100855.00;;;;5046797;28;20195;-77
2021/08/05 08:16:28;;;;;;;9.57;8.63;;;;;25.50;100854.00;;;;5047975;28;20210;-77
2021/08/05 08:18:57;;;;;;;8.63;7.82;;;;;25.50;100855.00;;;;5048963;28;20204;-77
2021/08/05 08:21:24;;;;;;;9.38;8.43;;;;;25.60;100862.00;;;;5049232;28;20204;-76
2021/08/05 08:23:51;;;;;;;9.90;8.68;;;;;25.60;100855.00;;;;5048053;28;20208;-77
2021/08/05 08:26:19;;;;;;;9.95;8.88;;;;;25.70;100859.00;;;;5044706;28;20227;-78
2021/08/05 08:28:47;;;;;;;10.70;8.95;;;;;25.70;100850.00;;;;5027816;28;20733;-78
2021/08/05 08:31:14;;;;;;;12.50;10.27;;;;;25.80;100853.00;;;;5028375;28;20196;-77
2021/08/05 08:33:42;;;;;;;10.63;9.50;;;;;25.90;100855.00;;;;5029175;28;20581;-77
2021/08/05 08:36:10;;;;;;;10.82;9.38;;;;;26.00;100847.00;;;;5027186;28;20211;-78
2021/08/05 08:38:42;;;;;;;10.10;9.07;;;;;26.20;100847.00;;;;5030768;28;20200;-78
2021/08/05 08:41:11;;;;;;;9.80;8.90;;;;;26.30;100849.00;;;;5028038;28;20283;-77
2021/08/05 08:43:38;;;;;;;9.98;9.02;;;;;26.40;100858.00;;;;5027165;28;21216;-77
2021/08/05 08:46:06;;;;;;;10.10;9.07;;;;;26.50;100854.00;;;;5026599;28;20230;-78
2021/08/05 08:48:34;;;;;;;10.23;8.93;;;;;26.60;100853.00;;;;5026894;28;20841;-78
2021/08/05 08:51:03;;;;;;;8.68;7.93;;;;;26.70;100849.00;;;;5026430;28;20196;-77
2021/08/05 08:53:35;;;;;;;9.02;8.23;;;;;26.80;100850.00;;;;5026776;28;20640;-77
2021/08/05 08:56:05;;;;;;;10.45;8.82;;;;;27.00;100856.00;;;;5026667;28;20262;-77
2021/08/05 08:58:33;;;;;;;8.60;7.85;;;;;27.10;100849.00;;;;5047769;28;20572;-78
2021/08/05 09:01:00;;;;;;;9.65;7.65;;;;;27.20;100853.00;;;;5048354;28;20207;-78
2021/08/05 09:03:29;;;;;;;9.15;8.25;;;;;27.30;100835.00;;;;5046613;28;20278;-78
2021/08/05 09:05:56;;;;;;;9.55;8.65;;;;;27.40;100836.00;;;;5047775;28;20223;-79
2021/08/05 09:08:24;;;;;;;8.82;7.95;;;;;27.50;100827.00;;;;5048568;28;20203;-78
2021/08/05 09:10:55;;;;;;;8.77;8.02;;;;;27.60;100824.00;;;;5047997;28;20198;-77
2021/08/05 09:13:23;;;;;;;7.88;7.18;;;;;27.80;100826.00;;;;5048993;28;20192;-78
2021/08/05 09:15:50;;;;;;;9.57;8.57;;;;;27.90;100823.00;;;;5046034;28;20310;-78
2021/08/05 09:18:31;;;;;;;8.13;7.32;;;;;27.90;100835.00;;;;5046547;28;20686;-78
2021/08/05 09:21:10;;;;;;;7.85;7.05;;;;;28.10;100831.00;;;;5041758;28;20713;-78
2021/08/05 09:23:48;;;;;;;7.30;6.50;;;;;28.20;100825.00;;;;5047110;28;20195;-78
2021/08/05 09:26:28;;;;;;;7.78;7.00;;;;;28.30;100833.00;;;;5049539;28;20219;-78
2021/08/05 09:29:13;;;;;;;6.50;5.80;;;;;28.30;100826.00;;;;5049456;28;20592;-78
2021/08/05 09:31:45;;;;;;;9.05;6.97;;;;;28.50;100817.00;;;;5049828;28;20662;-80
2021/08/05 09:34:14;;;;;;;7.07;6.43;;;;;28.60;100817.00;;;;5049658;28;20322;-78
2021/08/05 09:36:42;;;;;;;7.15;6.47;;;;;28.70;100814.00;;;;5037320;28;20579;-79
2021/08/05 09:39:18;;;;;;;8.07;7.28;;;;;28.70;100809.00;;;;5030234;28;20193;-79
2021/08/05 09:41:56;;;;;;;7.75;6.95;;;;;28.80;100817.00;;;;5029602;28;20227;-78
2021/08/05 09:44:24;;;;;;;8.45;7.55;;;;;29.00;100813.00;;;;5030602;28;20192;-78
2021/08/05 09:47:05;;;;;;;8.35;6.85;;;;;29.10;100816.00;;;;5029578;28;20773;-79
2021/08/05 09:49:34;;;;;;;10.10;8.45;;;;;29.20;100813.00;;;;5034282;28;20214;-78
2021/08/05 09:52:02;;;;;;;10.95;8.35;;;;;29.30;100813.00;;;;5050044;28;20941;-78
2021/08/05 09:54:43;;;;;;;9.13;8.27;;;;;29.30;100806.00;;;;5046578;28;20196;-77
2021/08/05 09:57:22;;;;;;;9.45;7.30;;;;;29.40;100809.00;;;;5031855;28;20265;-77
2021/08/05 09:59:54;;;;;;;6.88;6.30;;;;;29.50;100810.00;;;;5031603;28;20196;-78
2021/08/05 10:02:22;;;;;;;9.00;8.13;;;;;29.60;100803.00;;;;5031596;28;20203;-78
2021/08/05 10:04:49;;;;;;;8.55;7.65;;;;;29.60;100798.00;;;;5031225;28;20201;-79
2021/08/05 10:07:17;;;;;;;8.32;7.38;;;;;29.60;100802.00;;;;5039503;28;20701;-78
2021/08/05 10:09:45;;;;;;;8.77;7.30;;;;;29.70;100800.00;;;;5050806;28;20685;-78
2021/08/05 10:12:16;;;;;;;8.05;7.00;;;;;29.80;100797.00;;;;5051512;28;20257;-79
2021/08/05 10:14:44;;;;;;;7.55;6.85;;;;;29.80;100801.00;;;;5050737;28;20206;-78
2021/08/05 10:17:12;;;;;;;7.45;6.78;;;;;29.90;100792.00;;;;5049333;28;20207;-78
2021/08/05 10:19:41;;;;;;;6.53;5.90;;;;;29.90;100789.00;;;;5049119;28;20206;-77
2021/08/05 10:22:10;;;;;;;7.50;6.78;;;;;30.00;100794.00;;;;5049053;28;20203;-79
2021/08/05 10:24:39;;;;;;;8.10;7.28;;;;;30.10;100794.00;;;;5042845;28;20204;-78
2021/08/05 10:27:08;;;;;;;7.03;6.22;;;;;30.10;100787.00;;;;5029192;28;20224;-78
2021/08/05 10:29:39;;;;;;;7.63;6.90;;;;;30.20;100787.00;;;;5030019;28;20311;-78
2021/08/05 10:32:08;;;;;;;6.90;6.20;;;;;30.30;100790.00;;;;5030715;28;20204;-79
2021/08/05 10:34:38;;;;;;;6.50;5.90;;;;;30.30;100790.00;;;;5030526;28;20232;-77
2021/08/05 10:37:07;;;;;;;7.47;5.85;;;;;30.30;100792.00;;;;5030697;28;20211;-77
2021/08/05 10:39:35;;;;;;;6.35;5.60;;;;;30.30;100786.00;;;;5034452;28;20193;-78
2021/08/05 10:42:07;;;;;;;5.55;4.72;;;;;30.20;100783.00;;;;5045501;28;20690;-78
2021/08/05 10:44:37;;;;;;;5.88;5.35;;;;;30.10;100776.00;;;;5048324;28;20203;-78
2021/08/05 10:47:06;;;;;;;9.68;4.25;;;;;30.10;100779.00;;;;5048684;28;20234;-79
2021/08/05 10:49:35;;;;;;;3.88;3.50;;;;;30.00;100775.00;;;;5049394;28;20203;-78
2021/08/05 10:52:02;;;;;;;4.75;3.47;;;;;29.90;100770.00;;;;5048386;28;20195;-78
2021/08/05 10:54:49;;;;;;;7.07;5.22;;;;;29.70;100770.00;;;;5041302;28;20205;-78
2021/08/05 10:57:18;;;;;;;6.05;4.30;;;;;29.80;100770.00;;;;5031814;28;20251;-78
2021/08/05 11:00:05;;;;;;;7.03;6.32;;;;;29.60;100763.00;;;;5050345;28;20199;-78
2021/08/05 11:02:47;;;;;;;6.18;5.32;;;;;29.60;100766.00;;;;5050448;28;20203;-77
2021/08/05 11:05:44;;;;;;;4.80;4.40;;;;;29.40;100766.00;;;;5050785;28;20208;-78
2021/08/05 11:08:28;;;;;;;4.85;4.45;;;;;29.40;100765.00;;;;5049932;28;20352;-77
2021/08/05 11:11:30;;;;;;;4.30;3.90;;;;;29.30;100753.00;;;;5028674;28;20200;-78
2021/08/05 11:14:35;;;;;;;5.63;5.13;;;;;29.30;100757.00;;;;5030078;28;20279;-77
2021/08/05 11:17:05;;;;;;;6.35;5.72;;;;;29.40;100748.00;;;;5028294;28;20258;-78
2021/08/05 11:19:34;;;;;;;7.22;6.35;;;;;29.40;100752.00;;;;5027726;28;20196;-78
2021/08/05 11:22:50;;;;;;;6.85;6.22;;;;;29.30;100752.00;;;;5027844;28;20234;-78
2021/08/05 11:25:18;;;;;;;7.13;5.50;;;;;29.40;100748.00;;;;5033015;28;20199;-79
2021/08/05 11:28:22;;;;;;;6.68;5.50;;;;;29.20;100742.00;;;;5047773;28;20310;-78
2021/08/05 11:30:54;;;;;;;6.32;5.72;;;;;29.20;100731.00;;;;5048846;28;20219;-78
2021/08/05 11:34:02;;;;;;;6.32;5.72;;;;;29.10;100725.00;;;;5049237;28;20210;-78
2021/08/05 11:36:36;;;;;;;6.85;5.43;;;;;29.10;100727.00;;;;5049959;28;20298;-77
2021/08/05 11:39:07;;;;;;;6.35;5.75;;;;;29.10;100719.00;;;;5049432;28;20203;-78
2021/08/05 11:42:14;;;;;;;6.28;4.90;;;;;28.90;100724.00;;;;5049818;28;20200;-78
2021/08/05 11:44:45;;;;;;;5.80;5.03;;;;;29.00;100723.00;;;;5041431;28;20191;-78
2021/08/05 11:47:30;;;;;;;9.02;6.47;;;;;28.80;100720.00;;;;5049127;28;20317;-78
2021/08/05 11:50:10;;;;;;;7.78;6.90;;;;;28.90;100712.00;;;;5049588;28;20329;-78
2021/08/05 11:52:41;;;;;;;6.82;6.22;;;;;28.80;100725.00;;;;5049912;28;20203;-78
2021/08/05 11:55:10;;;;;;;7.45;6.40;;;;;28.80;100708.00;;;;5034634;28;20215;-78
2021/08/05 11:57:40;;;;;;;7.40;6.70;;;;;28.70;100709.00;;;;5029362;28;20573;-78
2021/08/05 12:00:13;;;;;;;7.80;7.03;;;;;28.60;100705.00;;;;5029728;28;20204;-78
2021/08/05 12:02:41;;;;;;;7.22;6.30;;;;;28.60;100699.00;;;;5029595;28;20200;-78
2021/08/05 12:05:09;;;;;;;7.75;7.00;;;;;28.60;100696.00;;;;5030077;28;20212;-78
2021/08/05 12:07:39;;;;;;;7.30;6.57;;;;;28.60;100695.00;;;;5028825;28;20270;-77
2021/08/05 12:10:12;;;;;;;7.18;6.22;;;;;28.50;100690.00;;;;5029309;28;20231;-78
2021/08/05 12:12:43;;;;;;;6.88;6.25;;;;;28.50;100691.00;;;;5029441;28;20195;-78
2021/08/05 12:15:12;;;;;;;7.75;6.95;;;;;28.50;100688.00;;;;5029144;28;20259;-77
2021/08/05 12:17:46;;;;;;;6.70;6.10;;;;;28.50;100686.00;;;;5029119;28;20202;-78
2021/08/05 12:20:16;;;;;;;7.00;6.40;;;;;28.60;100681.00;;;;5029192;28;20211;-78
2021/08/05 12:22:47;;;;;;;6.78;6.15;;;;;28.60;100679.00;;;;5034671;28;20218;-78